sensor_id;sensor_type;location;lat;lon;timestamp;temperature;humidity
5466;DHT22;2755;50.728;7.108;2023-04-24T00:01:29;11.50;55.20
5466;DHT22;2755;50.728;7.108;2023-04-24T00:03:56;11.60;56.20
5466;DHT22;2755;50.728;7.108;2023-04-24T00:06:25;11.30;55.40
5466;DHT22;2755;50.728;7.108;2023-04-24T00:09:01;12.20;58.90
5466;DHT22;2755;50.728;7.108;2023-04-24T00:11:27;10.40;54.50
5466;DHT22;2755;50.728;7.108;2023-04-24T00:13:53;11.40;56.40
5466;DHT22;2755;50.728;7.108;2023-04-24T00:16:19;11.30;55.30
5466;DHT22;2755;50.728;7.108;2023-04-24T00:18:44;11.20;58.10
5466;DHT22;2755;50.728;7.108;2023-04-24T00:21:10;11.70;55.70
5466;DHT22;2755;50.728;7.108;2023-04-24T00:26:02;11.50;57.40
5466;DHT22;2755;50.728;7.108;2023-04-24T00:28:28;11.50;55.40
5466;DHT22;2755;50.728;7.108;2023-04-24T00:30:54;11.40;55.50
5466;DHT22;2755;50.728;7.108;2023-04-24T00:38:11;11.50;58.80
5466;DHT22;2755;50.728;7.108;2023-04-24T00:43:03;11.50;56.10
5466;DHT22;2755;50.728;7.108;2023-04-24T00:45:29;11.40;55.90
5466;DHT22;2755;50.728;7.108;2023-04-24T00:47:57;11.40;56.00
5466;DHT22;2755;50.728;7.108;2023-04-24T00:50:24;11.50;55.90
5466;DHT22;2755;50.728;7.108;2023-04-24T00:55:16;11.90;56.50
5466;DHT22;2755;50.728;7.108;2023-04-24T00:57:43;11.30;56.20
5466;DHT22;2755;50.728;7.108;2023-04-24T01:00:09;11.10;56.00
5466;DHT22;2755;50.728;7.108;2023-04-24T01:02:40;11.60;56.60
5466;DHT22;2755;50.728;7.108;2023-04-24T01:05:09;11.90;59.20
5466;DHT22;2755;50.728;7.108;2023-04-24T01:07:35;11.60;55.00
5466;DHT22;2755;50.728;7.108;2023-04-24T01:10:01;11.10;55.60
5466;DHT22;2755;50.728;7.108;2023-04-24T01:12:27;11.70;56.00
5466;DHT22;2755;50.728;7.108;2023-04-24T01:14:53;11.60;57.40
5466;DHT22;2755;50.728;7.108;2023-04-24T01:19:46;12.10;59.50
5466;DHT22;2755;50.728;7.108;2023-04-24T01:22:15;11.60;56.00
5466;DHT22;2755;50.728;7.108;2023-04-24T01:24:42;11.90;57.70
5466;DHT22;2755;50.728;7.108;2023-04-24T01:32:00;11.30;59.80
5466;DHT22;2755;50.728;7.108;2023-04-24T01:34:26;10.50;57.30
5466;DHT22;2755;50.728;7.108;2023-04-24T01:36:52;11.00;58.00
5466;DHT22;2755;50.728;7.108;2023-04-24T01:39:17;11.10;58.20
5466;DHT22;2755;50.728;7.108;2023-04-24T01:41:45;11.00;59.80
5466;DHT22;2755;50.728;7.108;2023-04-24T01:44:11;11.20;57.70
5466;DHT22;2755;50.728;7.108;2023-04-24T01:46:37;10.00;54.40
5466;DHT22;2755;50.728;7.108;2023-04-24T01:49:03;11.00;52.70
5466;DHT22;2755;50.728;7.108;2023-04-24T01:51:29;11.00;52.70
5466;DHT22;2755;50.728;7.108;2023-04-24T01:53:55;11.10;50.50
5466;DHT22;2755;50.728;7.108;2023-04-24T01:56:21;11.00;49.60
5466;DHT22;2755;50.728;7.108;2023-04-24T01:58:50;10.90;51.50
5466;DHT22;2755;50.728;7.108;2023-04-24T02:01:20;10.70;49.20
5466;DHT22;2755;50.728;7.108;2023-04-24T02:03:46;10.60;49.60
5466;DHT22;2755;50.728;7.108;2023-04-24T02:06:12;10.50;46.50
5466;DHT22;2755;50.728;7.108;2023-04-24T02:08:37;10.70;46.00
5466;DHT22;2755;50.728;7.108;2023-04-24T02:11:03;10.60;45.00
5466;DHT22;2755;50.728;7.108;2023-04-24T02:13:29;10.50;42.40
5466;DHT22;2755;50.728;7.108;2023-04-24T02:15:54;10.40;42.00
5466;DHT22;2755;50.728;7.108;2023-04-24T02:18:20;10.50;42.20
5466;DHT22;2755;50.728;7.108;2023-04-24T02:20:46;9.90;41.50
5466;DHT22;2755;50.728;7.108;2023-04-24T02:25:38;10.70;43.00
5466;DHT22;2755;50.728;7.108;2023-04-24T02:28:04;10.30;42.00
5466;DHT22;2755;50.728;7.108;2023-04-24T02:32:56;10.10;41.30
5466;DHT22;2755;50.728;7.108;2023-04-24T02:40:13;10.20;45.20
5466;DHT22;2755;50.728;7.108;2023-04-24T02:42:39;10.00;42.50
5466;DHT22;2755;50.728;7.108;2023-04-24T02:45:05;9.60;46.10
5466;DHT22;2755;50.728;7.108;2023-04-24T02:49:56;9.60;45.40
5466;DHT22;2755;50.728;7.108;2023-04-24T02:52:22;9.50;45.10
5466;DHT22;2755;50.728;7.108;2023-04-24T02:54:48;9.10;46.00
5466;DHT22;2755;50.728;7.108;2023-04-24T02:59:40;9.00;46.20
5466;DHT22;2755;50.728;7.108;2023-04-24T03:02:05;8.80;46.80
5466;DHT22;2755;50.728;7.108;2023-04-24T03:06:57;8.80;48.60
5466;DHT22;2755;50.728;7.108;2023-04-24T03:09:23;8.50;48.90
5466;DHT22;2755;50.728;7.108;2023-04-24T03:11:48;8.30;50.60
5466;DHT22;2755;50.728;7.108;2023-04-24T03:16:40;8.70;49.40
5466;DHT22;2755;50.728;7.108;2023-04-24T03:19:06;8.60;50.60
5466;DHT22;2755;50.728;7.108;2023-04-24T03:21:32;8.60;49.50
5466;DHT22;2755;50.728;7.108;2023-04-24T03:26:24;8.50;50.60
5466;DHT22;2755;50.728;7.108;2023-04-24T03:28:50;8.60;47.80
5466;DHT22;2755;50.728;7.108;2023-04-24T03:31:15;8.70;50.70
5466;DHT22;2755;50.728;7.108;2023-04-24T03:33:41;8.70;50.70
5466;DHT22;2755;50.728;7.108;2023-04-24T03:40:59;8.50;49.80
5466;DHT22;2755;50.728;7.108;2023-04-24T03:48:18;8.50;47.00
5466;DHT22;2755;50.728;7.108;2023-04-24T03:50:44;8.40;48.10
5466;DHT22;2755;50.728;7.108;2023-04-24T03:53:10;8.20;50.30
5466;DHT22;2755;50.728;7.108;2023-04-24T03:55:35;7.60;50.00
5466;DHT22;2755;50.728;7.108;2023-04-24T03:58:01;8.30;51.60
5466;DHT22;2755;50.728;7.108;2023-04-24T04:05:19;8.40;53.40
5466;DHT22;2755;50.728;7.108;2023-04-24T04:07:44;8.50;52.80
5466;DHT22;2755;50.728;7.108;2023-04-24T04:10:10;8.10;51.70
5466;DHT22;2755;50.728;7.108;2023-04-24T04:12:36;8.50;54.30
5466;DHT22;2755;50.728;7.108;2023-04-24T04:15:02;7.30;56.40
5466;DHT22;2755;50.728;7.108;2023-04-24T04:17:27;7.70;56.70
5466;DHT22;2755;50.728;7.108;2023-04-24T04:19:53;7.60;52.80
5466;DHT22;2755;50.728;7.108;2023-04-24T04:22:18;7.00;51.90
5466;DHT22;2755;50.728;7.108;2023-04-24T04:24:44;8.20;55.60
5466;DHT22;2755;50.728;7.108;2023-04-24T04:27:10;9.10;55.80
5466;DHT22;2755;50.728;7.108;2023-04-24T04:29:36;8.00;54.30
5466;DHT22;2755;50.728;7.108;2023-04-24T04:32:02;8.10;63.00
5466;DHT22;2755;50.728;7.108;2023-04-24T04:34:27;8.50;57.70
5466;DHT22;2755;50.728;7.108;2023-04-24T04:36:55;7.90;56.10
5466;DHT22;2755;50.728;7.108;2023-04-24T04:44:14;8.10;57.20
5466;DHT22;2755;50.728;7.108;2023-04-24T04:46:40;8.00;53.80
5466;DHT22;2755;50.728;7.108;2023-04-24T04:49:07;7.80;72.50
5466;DHT22;2755;50.728;7.108;2023-04-24T04:51:34;7.80;55.30
5466;DHT22;2755;50.728;7.108;2023-04-24T04:53:59;8.60;55.00
5466;DHT22;2755;50.728;7.108;2023-04-24T04:56:25;8.50;54.60
5466;DHT22;2755;50.728;7.108;2023-04-24T04:58:51;8.60;55.00
5466;DHT22;2755;50.728;7.108;2023-04-24T05:01:17;8.60;69.20
5466;DHT22;2755;50.728;7.108;2023-04-24T05:03:42;8.60;52.40
5466;DHT22;2755;50.728;7.108;2023-04-24T05:11:00;8.70;61.80
5466;DHT22;2755;50.728;7.108;2023-04-24T05:13:26;9.30;50.40
5466;DHT22;2755;50.728;7.108;2023-04-24T05:15:51;9.60;53.30
5466;DHT22;2755;50.728;7.108;2023-04-24T05:20:43;9.40;63.40
5466;DHT22;2755;50.728;7.108;2023-04-24T05:25:35;9.90;62.10
5466;DHT22;2755;50.728;7.108;2023-04-24T05:28:01;9.20;47.80
5466;DHT22;2755;50.728;7.108;2023-04-24T05:30:27;9.60;48.90
5466;DHT22;2755;50.728;7.108;2023-04-24T05:35:19;9.20;63.00
5466;DHT22;2755;50.728;7.108;2023-04-24T05:37:44;9.00;47.10
5466;DHT22;2755;50.728;7.108;2023-04-24T05:40:11;9.30;62.20
5466;DHT22;2755;50.728;7.108;2023-04-24T05:42:39;9.00;48.10
5466;DHT22;2755;50.728;7.108;2023-04-24T05:45:05;9.60;44.40
5466;DHT22;2755;50.728;7.108;2023-04-24T05:47:31;9.70;45.00
5466;DHT22;2755;50.728;7.108;2023-04-24T05:54:48;9.00;45.90
5466;DHT22;2755;50.728;7.108;2023-04-24T05:57:14;10.50;47.90
5466;DHT22;2755;50.728;7.108;2023-04-24T05:59:40;9.30;50.30
5466;DHT22;2755;50.728;7.108;2023-04-24T06:02:06;8.90;48.20
5466;DHT22;2755;50.728;7.108;2023-04-24T06:06:59;9.70;45.30
5466;DHT22;2755;50.728;7.108;2023-04-24T06:09:25;9.90;49.00
5466;DHT22;2755;50.728;7.108;2023-04-24T06:14:21;9.80;49.30
5466;DHT22;2755;50.728;7.108;2023-04-24T06:16:47;9.50;47.60
5466;DHT22;2755;50.728;7.108;2023-04-24T06:19:13;9.70;49.50
5466;DHT22;2755;50.728;7.108;2023-04-24T06:26:31;9.60;48.50
5466;DHT22;2755;50.728;7.108;2023-04-24T06:28:57;9.80;50.60
5466;DHT22;2755;50.728;7.108;2023-04-24T06:31:24;9.90;49.00
5466;DHT22;2755;50.728;7.108;2023-04-24T06:33:50;10.40;50.30
5466;DHT22;2755;50.728;7.108;2023-04-24T06:36:15;9.30;66.40
5466;DHT22;2755;50.728;7.108;2023-04-24T06:38:41;10.10;47.50
5466;DHT22;2755;50.728;7.108;2023-04-24T06:41:07;10.10;47.70
5466;DHT22;2755;50.728;7.108;2023-04-24T06:43:33;10.30;66.90
5466;DHT22;2755;50.728;7.108;2023-04-24T06:45:59;9.90;68.10
5466;DHT22;2755;50.728;7.108;2023-04-24T06:48:25;10.10;48.50
5466;DHT22;2755;50.728;7.108;2023-04-24T06:50:51;10.00;49.90
5466;DHT22;2755;50.728;7.108;2023-04-24T07:00:37;10.00;67.20
5466;DHT22;2755;50.728;7.108;2023-04-24T07:03:03;9.70;62.40
5466;DHT22;2755;50.728;7.108;2023-04-24T07:05:31;8.70;73.40
5466;DHT22;2755;50.728;7.108;2023-04-24T07:07:56;9.40;79.40
5466;DHT22;2755;50.728;7.108;2023-04-24T07:17:42;9.60;90.40
5466;DHT22;2755;50.728;7.108;2023-04-24T07:20:11;8.90;91.00
5466;DHT22;2755;50.728;7.108;2023-04-24T07:22:39;8.20;90.50
5466;DHT22;2755;50.728;7.108;2023-04-24T07:25:06;9.10;92.80
5466;DHT22;2755;50.728;7.108;2023-04-24T07:29:58;9.00;94.20
5466;DHT22;2755;50.728;7.108;2023-04-24T07:32:23;8.80;93.40
5466;DHT22;2755;50.728;7.108;2023-04-24T07:39:41;7.70;97.20
5466;DHT22;2755;50.728;7.108;2023-04-24T07:42:06;8.50;96.10
5466;DHT22;2755;50.728;7.108;2023-04-24T07:44:32;7.80;97.70
5466;DHT22;2755;50.728;7.108;2023-04-24T07:49:23;8.50;99.90
5466;DHT22;2755;50.728;7.108;2023-04-24T07:51:49;8.40;99.90
5466;DHT22;2755;50.728;7.108;2023-04-24T07:56:42;8.60;99.90
5466;DHT22;2755;50.728;7.108;2023-04-24T07:59:08;8.50;99.90
5466;DHT22;2755;50.728;7.108;2023-04-24T08:01:35;8.60;99.90
5466;DHT22;2755;50.728;7.108;2023-04-24T08:11:22;8.60;99.90
5466;DHT22;2755;50.728;7.108;2023-04-24T08:13:47;7.90;99.90
5466;DHT22;2755;50.728;7.108;2023-04-24T08:23:31;8.70;99.90
5466;DHT22;2755;50.728;7.108;2023-04-24T08:25:57;8.10;99.90
5466;DHT22;2755;50.728;7.108;2023-04-24T08:28:23;8.30;99.90
5466;DHT22;2755;50.728;7.108;2023-04-24T08:40:37;8.50;99.90
5466;DHT22;2755;50.728;7.108;2023-04-24T08:43:03;8.30;99.90
5466;DHT22;2755;50.728;7.108;2023-04-24T08:47:55;7.90;99.90
5466;DHT22;2755;50.728;7.108;2023-04-24T08:50:23;7.80;99.90
5466;DHT22;2755;50.728;7.108;2023-04-24T08:52:50;7.80;99.90
5466;DHT22;2755;50.728;7.108;2023-04-24T08:55:16;7.40;99.90
5466;DHT22;2755;50.728;7.108;2023-04-24T08:57:44;7.60;99.90
5466;DHT22;2755;50.728;7.108;2023-04-24T09:00:11;7.40;99.90
5466;DHT22;2755;50.728;7.108;2023-04-24T09:02:39;7.80;99.90
5466;DHT22;2755;50.728;7.108;2023-04-24T09:05:07;7.80;99.90
5466;DHT22;2755;50.728;7.108;2023-04-24T09:07:34;7.50;99.90
5466;DHT22;2755;50.728;7.108;2023-04-24T09:10:02;7.50;99.90
5466;DHT22;2755;50.728;7.108;2023-04-24T09:14:54;7.50;99.90
5466;DHT22;2755;50.728;7.108;2023-04-24T09:17:20;7.40;99.90
5466;DHT22;2755;50.728;7.108;2023-04-24T09:22:15;7.70;99.90
5466;DHT22;2755;50.728;7.108;2023-04-24T09:24:40;7.20;99.90
5466;DHT22;2755;50.728;7.108;2023-04-24T09:27:07;7.40;99.90
5466;DHT22;2755;50.728;7.108;2023-04-24T09:29:32;8.50;99.90
5466;DHT22;2755;50.728;7.108;2023-04-24T09:31:58;8.00;99.90
5466;DHT22;2755;50.728;7.108;2023-04-24T09:34:25;8.30;99.90
5466;DHT22;2755;50.728;7.108;2023-04-24T09:39:18;8.50;99.90
5466;DHT22;2755;50.728;7.108;2023-04-24T09:41:52;7.70;99.90
5466;DHT22;2755;50.728;7.108;2023-04-24T09:44:19;7.70;99.90
5466;DHT22;2755;50.728;7.108;2023-04-24T09:46:55;7.80;99.90
5466;DHT22;2755;50.728;7.108;2023-04-24T09:49:31;7.80;99.90
5466;DHT22;2755;50.728;7.108;2023-04-24T09:54:31;8.10;99.90
5466;DHT22;2755;50.728;7.108;2023-04-24T09:59:22;8.00;99.90
5466;DHT22;2755;50.728;7.108;2023-04-24T10:04:18;8.10;99.90
5466;DHT22;2755;50.728;7.108;2023-04-24T10:09:10;8.00;99.90
5466;DHT22;2755;50.728;7.108;2023-04-24T10:16:29;8.60;99.90
5466;DHT22;2755;50.728;7.108;2023-04-24T10:18:59;8.40;99.90
5466;DHT22;2755;50.728;7.108;2023-04-24T10:21:26;9.80;99.90
5466;DHT22;2755;50.728;7.108;2023-04-24T10:28:46;10.00;99.90
5466;DHT22;2755;50.728;7.108;2023-04-24T10:31:13;8.40;99.90
5466;DHT22;2755;50.728;7.108;2023-04-24T10:33:41;8.50;99.90
5466;DHT22;2755;50.728;7.108;2023-04-24T10:36:09;8.70;99.90
5466;DHT22;2755;50.728;7.108;2023-04-24T10:38:37;9.20;99.90
5466;DHT22;2755;50.728;7.108;2023-04-24T10:41:13;8.80;99.90
5466;DHT22;2755;50.728;7.108;2023-04-24T10:48:43;9.10;99.90
5466;DHT22;2755;50.728;7.108;2023-04-24T10:51:12;8.80;99.90
5466;DHT22;2755;50.728;7.108;2023-04-24T10:53:39;8.70;99.90
5466;DHT22;2755;50.728;7.108;2023-04-24T11:01:27;8.70;99.90
5466;DHT22;2755;50.728;7.108;2023-04-24T11:04:01;8.70;99.90
5466;DHT22;2755;50.728;7.108;2023-04-24T11:06:33;8.90;99.90
5466;DHT22;2755;50.728;7.108;2023-04-24T11:09:20;8.80;99.90
5466;DHT22;2755;50.728;7.108;2023-04-24T11:11:47;9.80;99.90
5466;DHT22;2755;50.728;7.108;2023-04-24T11:14:16;8.50;99.90
5466;DHT22;2755;50.728;7.108;2023-04-24T11:19:17;9.50;99.90
5466;DHT22;2755;50.728;7.108;2023-04-24T11:22:13;10.00;99.90
5466;DHT22;2755;50.728;7.108;2023-04-24T11:24:48;10.50;99.90
5466;DHT22;2755;50.728;7.108;2023-04-24T11:27:19;10.50;99.90
5466;DHT22;2755;50.728;7.108;2023-04-24T11:32:19;10.30;99.90
5466;DHT22;2755;50.728;7.108;2023-04-24T11:34:49;10.20;99.90
5466;DHT22;2755;50.728;7.108;2023-04-24T11:37:15;10.50;99.90
5466;DHT22;2755;50.728;7.108;2023-04-24T11:39:41;11.70;99.90
5466;DHT22;2755;50.728;7.108;2023-04-24T11:44:34;11.90;99.90
5466;DHT22;2755;50.728;7.108;2023-04-24T11:51:55;11.80;94.10
5466;DHT22;2755;50.728;7.108;2023-04-24T11:59:13;11.30;96.70
5466;DHT22;2755;50.728;7.108;2023-04-24T12:01:45;11.10;98.30
5466;DHT22;2755;50.728;7.108;2023-04-24T12:04:11;11.10;99.90
5466;DHT22;2755;50.728;7.108;2023-04-24T12:09:03;10.70;97.90
5466;DHT22;2755;50.728;7.108;2023-04-24T12:11:29;11.30;97.40
5466;DHT22;2755;50.728;7.108;2023-04-24T12:13:55;11.40;97.00
5466;DHT22;2755;50.728;7.108;2023-04-24T12:16:20;11.20;99.20
5466;DHT22;2755;50.728;7.108;2023-04-24T12:21:19;11.60;92.80
5466;DHT22;2755;50.728;7.108;2023-04-24T12:23:46;11.00;92.00
5466;DHT22;2755;50.728;7.108;2023-04-24T12:26:19;11.80;90.40
5466;DHT22;2755;50.728;7.108;2023-04-24T12:28:47;11.40;92.90
5466;DHT22;2755;50.728;7.108;2023-04-24T12:31:13;11.20;94.20
5466;DHT22;2755;50.728;7.108;2023-04-24T12:33:41;12.60;92.00
5466;DHT22;2755;50.728;7.108;2023-04-24T12:36:10;13.10;89.00
5466;DHT22;2755;50.728;7.108;2023-04-24T12:41:08;13.30;72.20
5466;DHT22;2755;50.728;7.108;2023-04-24T12:43:34;13.50;64.80
5466;DHT22;2755;50.728;7.108;2023-04-24T12:53:18;14.70;48.90
5466;DHT22;2755;50.728;7.108;2023-04-24T13:00:38;15.40;32.90
5466;DHT22;2755;50.728;7.108;2023-04-24T13:03:04;15.00;28.50
5466;DHT22;2755;50.728;7.108;2023-04-24T13:07:57;14.50;25.40
5466;DHT22;2755;50.728;7.108;2023-04-24T13:10:22;13.60;28.60
5466;DHT22;2755;50.728;7.108;2023-04-24T13:12:48;14.50;26.40
5466;DHT22;2755;50.728;7.108;2023-04-24T13:17:40;13.10;24.60
5466;DHT22;2755;50.728;7.108;2023-04-24T13:20:06;17.10;27.90
5466;DHT22;2755;50.728;7.108;2023-04-24T13:32:17;13.60;22.20
5466;DHT22;2755;50.728;7.108;2023-04-24T13:34:43;13.80;21.40
5466;DHT22;2755;50.728;7.108;2023-04-24T13:44:26;14.20;20.90
5466;DHT22;2755;50.728;7.108;2023-04-24T13:46:54;14.10;23.50
5466;DHT22;2755;50.728;7.108;2023-04-24T13:54:16;14.80;16.50
5466;DHT22;2755;50.728;7.108;2023-04-24T13:56:41;15.40;17.40
5466;DHT22;2755;50.728;7.108;2023-04-24T13:59:07;15.00;16.50
5466;DHT22;2755;50.728;7.108;2023-04-24T14:01:33;15.30;17.80
5466;DHT22;2755;50.728;7.108;2023-04-24T14:08:51;15.30;21.40
5466;DHT22;2755;50.728;7.108;2023-04-24T14:11:18;14.80;20.20
5466;DHT22;2755;50.728;7.108;2023-04-24T14:13:44;14.00;22.00
5466;DHT22;2755;50.728;7.108;2023-04-24T14:16:10;13.40;36.70
5466;DHT22;2755;50.728;7.108;2023-04-24T14:21:02;12.80;56.30
5466;DHT22;2755;50.728;7.108;2023-04-24T14:25:55;13.30;65.80
5466;DHT22;2755;50.728;7.108;2023-04-24T14:30:47;12.20;67.20
5466;DHT22;2755;50.728;7.108;2023-04-24T14:38:05;11.90;70.20
5466;DHT22;2755;50.728;7.108;2023-04-24T14:40:31;10.70;67.60
5466;DHT22;2755;50.728;7.108;2023-04-24T14:42:58;11.10;64.30
5466;DHT22;2755;50.728;7.108;2023-04-24T14:45:26;11.40;63.30
5466;DHT22;2755;50.728;7.108;2023-04-24T14:47:52;11.40;54.70
5466;DHT22;2755;50.728;7.108;2023-04-24T14:50:18;12.50;58.20
5466;DHT22;2755;50.728;7.108;2023-04-24T14:55:10;12.50;42.80
5466;DHT22;2755;50.728;7.108;2023-04-24T14:57:36;12.90;35.60
5466;DHT22;2755;50.728;7.108;2023-04-24T15:00:03;12.80;33.40
5466;DHT22;2755;50.728;7.108;2023-04-24T15:02:32;13.10;33.80
5466;DHT22;2755;50.728;7.108;2023-04-24T15:04:58;13.40;29.20
5466;DHT22;2755;50.728;7.108;2023-04-24T15:09:50;14.50;28.90
5466;DHT22;2755;50.728;7.108;2023-04-24T15:14:41;14.00;19.10
5466;DHT22;2755;50.728;7.108;2023-04-24T15:17:07;13.40;19.40
5466;DHT22;2755;50.728;7.108;2023-04-24T15:24:25;13.10;18.60
5466;DHT22;2755;50.728;7.108;2023-04-24T15:26:50;13.90;17.40
5466;DHT22;2755;50.728;7.108;2023-04-24T15:29:16;13.70;18.90
5466;DHT22;2755;50.728;7.108;2023-04-24T15:31:41;13.70;19.60
5466;DHT22;2755;50.728;7.108;2023-04-24T15:36:34;13.30;17.20
5466;DHT22;2755;50.728;7.108;2023-04-24T15:39:01;13.80;15.30
5466;DHT22;2755;50.728;7.108;2023-04-24T15:41:27;13.50;15.30
5466;DHT22;2755;50.728;7.108;2023-04-24T15:53:37;13.70;15.00
5466;DHT22;2755;50.728;7.108;2023-04-24T16:05:46;13.20;16.60
5466;DHT22;2755;50.728;7.108;2023-04-24T16:08:12;13.30;14.30
5466;DHT22;2755;50.728;7.108;2023-04-24T16:10:41;12.80;16.30
5466;DHT22;2755;50.728;7.108;2023-04-24T16:13:07;13.80;16.10
5466;DHT22;2755;50.728;7.108;2023-04-24T16:15:35;13.90;16.20
5466;DHT22;2755;50.728;7.108;2023-04-24T16:18:01;13.60;17.80
5466;DHT22;2755;50.728;7.108;2023-04-24T16:22:52;13.50;13.60
5466;DHT22;2755;50.728;7.108;2023-04-24T16:30:11;12.50;15.50
5466;DHT22;2755;50.728;7.108;2023-04-24T16:32:37;13.60;14.50
5466;DHT22;2755;50.728;7.108;2023-04-24T16:35:03;13.60;15.50
5466;DHT22;2755;50.728;7.108;2023-04-24T16:37:29;13.20;15.40
5466;DHT22;2755;50.728;7.108;2023-04-24T16:39:55;13.60;15.50
5466;DHT22;2755;50.728;7.108;2023-04-24T16:42:21;12.70;15.30
5466;DHT22;2755;50.728;7.108;2023-04-24T16:44:47;12.60;15.20
5466;DHT22;2755;50.728;7.108;2023-04-24T16:49:39;13.10;17.00
5466;DHT22;2755;50.728;7.108;2023-04-24T16:54:32;12.90;16.70
5466;DHT22;2755;50.728;7.108;2023-04-24T16:59:28;12.90;17.50
5466;DHT22;2755;50.728;7.108;2023-04-24T17:06:46;12.50;17.20
5466;DHT22;2755;50.728;7.108;2023-04-24T17:09:11;12.50;17.50
5466;DHT22;2755;50.728;7.108;2023-04-24T17:11:38;12.30;19.00
5466;DHT22;2755;50.728;7.108;2023-04-24T17:16:30;13.10;19.50
5466;DHT22;2755;50.728;7.108;2023-04-24T17:18:56;12.30;17.50
5466;DHT22;2755;50.728;7.108;2023-04-24T17:26:14;12.30;19.90
5466;DHT22;2755;50.728;7.108;2023-04-24T17:35:59;12.50;23.70
5466;DHT22;2755;50.728;7.108;2023-04-24T17:45:46;11.50;19.50
5466;DHT22;2755;50.728;7.108;2023-04-24T17:48:13;11.50;22.00
5466;DHT22;2755;50.728;7.108;2023-04-24T17:53:05;11.40;23.40
5466;DHT22;2755;50.728;7.108;2023-04-24T17:57:57;11.40;24.10
5466;DHT22;2755;50.728;7.108;2023-04-24T18:00:22;10.80;26.10
5466;DHT22;2755;50.728;7.108;2023-04-24T18:05:17;10.90;24.70
5466;DHT22;2755;50.728;7.108;2023-04-24T18:07:43;11.70;23.70
5466;DHT22;2755;50.728;7.108;2023-04-24T18:10:09;12.00;42.00
5466;DHT22;2755;50.728;7.108;2023-04-24T18:24:44;11.20;27.90
5466;DHT22;2755;50.728;7.108;2023-04-24T18:32:02;10.80;27.10
5466;DHT22;2755;50.728;7.108;2023-04-24T18:34:29;10.90;27.50
5466;DHT22;2755;50.728;7.108;2023-04-24T18:36:55;11.00;30.10
5466;DHT22;2755;50.728;7.108;2023-04-24T18:39:21;11.20;27.40
5466;DHT22;2755;50.728;7.108;2023-04-24T18:44:12;11.40;28.10
5466;DHT22;2755;50.728;7.108;2023-04-24T18:46:39;11.00;29.80
5466;DHT22;2755;50.728;7.108;2023-04-24T18:49:06;11.00;28.40
5466;DHT22;2755;50.728;7.108;2023-04-24T18:51:32;10.70;30.80
5466;DHT22;2755;50.728;7.108;2023-04-24T18:53:57;10.90;31.20
5466;DHT22;2755;50.728;7.108;2023-04-24T19:01:19;10.80;29.00
5466;DHT22;2755;50.728;7.108;2023-04-24T19:11:06;10.70;35.00
5466;DHT22;2755;50.728;7.108;2023-04-24T19:13:31;11.20;36.00
5466;DHT22;2755;50.728;7.108;2023-04-24T19:15:57;10.60;33.10
5466;DHT22;2755;50.728;7.108;2023-04-24T19:18:23;10.90;34.20
5466;DHT22;2755;50.728;7.108;2023-04-24T19:35:27;9.50;37.70
5466;DHT22;2755;50.728;7.108;2023-04-24T19:37:52;10.10;36.70
5466;DHT22;2755;50.728;7.108;2023-04-24T19:45:11;10.40;29.50
5466;DHT22;2755;50.728;7.108;2023-04-24T19:47:37;10.60;33.00
5466;DHT22;2755;50.728;7.108;2023-04-24T19:50:02;10.30;28.60
5466;DHT22;2755;50.728;7.108;2023-04-24T19:57:20;10.20;30.70
5466;DHT22;2755;50.728;7.108;2023-04-24T19:59:45;10.40;34.60
5466;DHT22;2755;50.728;7.108;2023-04-24T20:02:11;10.00;33.00
5466;DHT22;2755;50.728;7.108;2023-04-24T20:04:37;10.70;34.10
5466;DHT22;2755;50.728;7.108;2023-04-24T20:11:55;9.60;31.30
5466;DHT22;2755;50.728;7.108;2023-04-24T20:14:21;10.00;31.00
5466;DHT22;2755;50.728;7.108;2023-04-24T20:16:47;9.90;31.30
5466;DHT22;2755;50.728;7.108;2023-04-24T20:29:01;10.10;32.00
5466;DHT22;2755;50.728;7.108;2023-04-24T20:31:27;9.80;33.30
5466;DHT22;2755;50.728;7.108;2023-04-24T20:33:53;9.80;34.10
5466;DHT22;2755;50.728;7.108;2023-04-24T20:36:18;9.90;34.30
5466;DHT22;2755;50.728;7.108;2023-04-24T20:41:11;10.50;34.60
5466;DHT22;2755;50.728;7.108;2023-04-24T20:43:37;10.20;36.60
5466;DHT22;2755;50.728;7.108;2023-04-24T20:46:02;10.20;37.20
5466;DHT22;2755;50.728;7.108;2023-04-24T20:55:46;9.40;40.80
5466;DHT22;2755;50.728;7.108;2023-04-24T21:03:04;9.30;46.40
5466;DHT22;2755;50.728;7.108;2023-04-24T21:05:30;8.80;47.10
5466;DHT22;2755;50.728;7.108;2023-04-24T21:10:24;9.30;48.30
5466;DHT22;2755;50.728;7.108;2023-04-24T21:12:51;8.90;47.30
5466;DHT22;2755;50.728;7.108;2023-04-24T21:15:16;9.20;50.30
5466;DHT22;2755;50.728;7.108;2023-04-24T21:17:42;8.60;49.00
5466;DHT22;2755;50.728;7.108;2023-04-24T21:20:08;8.80;50.40
5466;DHT22;2755;50.728;7.108;2023-04-24T21:22:34;9.00;50.10
5466;DHT22;2755;50.728;7.108;2023-04-24T21:25:03;11.30;49.30
5466;DHT22;2755;50.728;7.108;2023-04-24T21:27:29;8.60;49.40
5466;DHT22;2755;50.728;7.108;2023-04-24T21:34:47;9.10;52.80
5466;DHT22;2755;50.728;7.108;2023-04-24T21:37:13;8.70;51.80
5466;DHT22;2755;50.728;7.108;2023-04-24T21:39:40;8.60;50.10
5466;DHT22;2755;50.728;7.108;2023-04-24T21:46:58;8.50;49.80
5466;DHT22;2755;50.728;7.108;2023-04-24T21:49:23;7.80;51.10
5466;DHT22;2755;50.728;7.108;2023-04-24T21:54:15;8.10;54.20
5466;DHT22;2755;50.728;7.108;2023-04-24T21:56:41;8.00;55.60
5466;DHT22;2755;50.728;7.108;2023-04-24T21:59:07;8.00;51.40
5466;DHT22;2755;50.728;7.108;2023-04-24T22:01:33;8.30;54.60
5466;DHT22;2755;50.728;7.108;2023-04-24T22:06:31;7.80;55.40
5466;DHT22;2755;50.728;7.108;2023-04-24T22:08:57;7.60;58.90
5466;DHT22;2755;50.728;7.108;2023-04-24T22:11:23;7.80;60.90
5466;DHT22;2755;50.728;7.108;2023-04-24T22:13:48;7.60;61.20
5466;DHT22;2755;50.728;7.108;2023-04-24T22:16:14;7.60;69.10
5466;DHT22;2755;50.728;7.108;2023-04-24T22:18:40;7.30;65.70
5466;DHT22;2755;50.728;7.108;2023-04-24T22:21:06;7.80;68.40
5466;DHT22;2755;50.728;7.108;2023-04-24T22:25:58;7.50;69.10
5466;DHT22;2755;50.728;7.108;2023-04-24T22:28:24;7.40;69.80
5466;DHT22;2755;50.728;7.108;2023-04-24T22:30:52;7.50;70.90
5466;DHT22;2755;50.728;7.108;2023-04-24T22:33:17;8.30;71.70
5466;DHT22;2755;50.728;7.108;2023-04-24T22:35:43;6.70;69.60
5466;DHT22;2755;50.728;7.108;2023-04-24T22:38:09;7.40;71.60
5466;DHT22;2755;50.728;7.108;2023-04-24T22:40:34;7.30;73.50
5466;DHT22;2755;50.728;7.108;2023-04-24T22:43:00;7.20;73.10
5466;DHT22;2755;50.728;7.108;2023-04-24T22:45:26;7.30;74.10
5466;DHT22;2755;50.728;7.108;2023-04-24T22:47:52;7.40;75.50
5466;DHT22;2755;50.728;7.108;2023-04-24T22:50:19;7.30;76.70
5466;DHT22;2755;50.728;7.108;2023-04-24T22:52:45;7.60;78.10
5466;DHT22;2755;50.728;7.108;2023-04-24T22:57:38;7.10;75.80
5466;DHT22;2755;50.728;7.108;2023-04-24T23:00:05;7.40;73.50
5466;DHT22;2755;50.728;7.108;2023-04-24T23:02:38;7.80;76.80
5466;DHT22;2755;50.728;7.108;2023-04-24T23:05:05;7.50;74.40
5466;DHT22;2755;50.728;7.108;2023-04-24T23:07:31;7.60;74.90
5466;DHT22;2755;50.728;7.108;2023-04-24T23:09:57;7.30;74.20
5466;DHT22;2755;50.728;7.108;2023-04-24T23:12:22;7.00;72.30
5466;DHT22;2755;50.728;7.108;2023-04-24T23:14:48;7.50;72.90
5466;DHT22;2755;50.728;7.108;2023-04-24T23:17:14;8.10;72.20
5466;DHT22;2755;50.728;7.108;2023-04-24T23:19:39;7.20;72.10
5466;DHT22;2755;50.728;7.108;2023-04-24T23:22:05;7.00;72.30
5466;DHT22;2755;50.728;7.108;2023-04-24T23:24:31;7.60;70.20
5466;DHT22;2755;50.728;7.108;2023-04-24T23:26:56;7.30;71.80
5466;DHT22;2755;50.728;7.108;2023-04-24T23:29:22;7.60;70.80
5466;DHT22;2755;50.728;7.108;2023-04-24T23:31:50;7.60;73.20
5466;DHT22;2755;50.728;7.108;2023-04-24T23:34:16;7.00;68.40